sensor_id;sensor_type;location;lat;lon;timestamp;P1;durP1;ratioP1;P2;durP2;ratioP2
16673;SDS011;8450;52.654;10.326;2022-09-09T05:27:27;2.33;;;1.63;;
16673;SDS011;8450;52.654;10.326;2022-09-09T05:29:53;4.13;;;2.00;;
16673;SDS011;8450;52.654;10.326;2022-09-09T05:32:18;3.73;;;1.90;;
16673;SDS011;8450;52.654;10.326;2022-09-09T05:34:47;3.30;;;1.90;;
16673;SDS011;8450;52.654;10.326;2022-09-09T05:37:13;2.10;;;1.80;;
16673;SDS011;8450;52.654;10.326;2022-09-09T05:39:39;2.07;;;1.73;;
16673;SDS011;8450;52.654;10.326;2022-09-09T05:42:05;2.37;;;1.87;;
16673;SDS011;8450;52.654;10.326;2022-09-09T05:56:43;2.23;;;1.90;;
16673;SDS011;8450;52.654;10.326;2022-09-09T05:59:09;3.13;;;1.90;;
16673;SDS011;8450;52.654;10.326;2022-09-09T06:01:36;3.37;;;2.00;;
16673;SDS011;8450;52.654;10.326;2022-09-09T06:04:05;2.90;;;1.90;;
16673;SDS011;8450;52.654;10.326;2022-09-09T06:06:33;2.30;;;2.10;;
16673;SDS011;8450;52.654;10.326;2022-09-09T06:09:09;2.60;;;2.03;;
16673;SDS011;8450;52.654;10.326;2022-09-09T06:11:37;3.00;;;1.93;;
16673;SDS011;8450;52.654;10.326;2022-09-09T06:14:04;2.00;;;1.80;;
16673;SDS011;8450;52.654;10.326;2022-09-09T06:16:31;2.97;;;2.10;;
16673;SDS011;8450;52.654;10.326;2022-09-09T06:18:58;1.67;;;1.57;;
16673;SDS011;8450;52.654;10.326;2022-09-09T06:21:27;3.03;;;2.00;;
16673;SDS011;8450;52.654;10.326;2022-09-09T06:23:56;3.17;;;2.47;;
16673;SDS011;8450;52.654;10.326;2022-09-09T06:26:26;2.97;;;1.90;;
16673;SDS011;8450;52.654;10.326;2022-09-09T06:28:57;2.40;;;1.90;;
16673;SDS011;8450;52.654;10.326;2022-09-09T06:31:24;2.70;;;2.30;;
16673;SDS011;8450;52.654;10.326;2022-09-09T06:33:53;3.30;;;2.20;;
16673;SDS011;8450;52.654;10.326;2022-09-09T06:36:22;2.30;;;2.10;;
16673;SDS011;8450;52.654;10.326;2022-09-09T06:38:50;2.17;;;1.97;;
16673;SDS011;8450;52.654;10.326;2022-09-09T06:41:18;2.80;;;2.03;;
16673;SDS011;8450;52.654;10.326;2022-09-09T06:43:48;2.77;;;2.03;;
16673;SDS011;8450;52.654;10.326;2022-09-09T06:46:16;3.77;;;1.83;;
16673;SDS011;8450;52.654;10.326;2022-09-09T06:48:49;2.57;;;2.00;;
16673;SDS011;8450;52.654;10.326;2022-09-09T06:51:19;2.53;;;2.10;;
16673;SDS011;8450;52.654;10.326;2022-09-09T06:53:52;4.70;;;2.03;;
16673;SDS011;8450;52.654;10.326;2022-09-09T06:56:21;2.87;;;2.37;;
16673;SDS011;8450;52.654;10.326;2022-09-09T06:58:50;5.33;;;2.20;;
16673;SDS011;8450;52.654;10.326;2022-09-09T07:01:24;2.27;;;2.03;;
16673;SDS011;8450;52.654;10.326;2022-09-09T07:03:52;2.83;;;2.10;;
16673;SDS011;8450;52.654;10.326;2022-09-09T07:06:21;3.03;;;2.23;;
16673;SDS011;8450;52.654;10.326;2022-09-09T07:09:01;2.30;;;2.10;;
16673;SDS011;8450;52.654;10.326;2022-09-09T07:11:41;3.57;;;2.43;;
16673;SDS011;8450;52.654;10.326;2022-09-09T07:14:10;6.07;;;2.73;;
16673;SDS011;8450;52.654;10.326;2022-09-09T07:16:41;3.77;;;2.57;;
16673;SDS011;8450;52.654;10.326;2022-09-09T07:19:08;2.50;;;2.30;;
16673;SDS011;8450;52.654;10.326;2022-09-09T07:21:36;3.50;;;2.43;;
16673;SDS011;8450;52.654;10.326;2022-09-09T07:24:03;2.60;;;2.10;;
16673;SDS011;8450;52.654;10.326;2022-09-09T07:26:32;4.07;;;2.23;;
16673;SDS011;8450;52.654;10.326;2022-09-09T07:28:59;2.60;;;2.40;;
16673;SDS011;8450;52.654;10.326;2022-09-09T07:31:27;2.50;;;2.10;;
16673;SDS011;8450;52.654;10.326;2022-09-09T07:33:56;4.27;;;2.40;;
16673;SDS011;8450;52.654;10.326;2022-09-09T07:36:24;5.43;;;2.53;;
16673;SDS011;8450;52.654;10.326;2022-09-09T07:38:55;3.73;;;2.43;;
16673;SDS011;8450;52.654;10.326;2022-09-09T07:41:34;5.53;;;2.40;;
16673;SDS011;8450;52.654;10.326;2022-09-09T07:44:04;3.37;;;2.33;;
16673;SDS011;8450;52.654;10.326;2022-09-09T07:46:39;2.90;;;2.20;;
16673;SDS011;8450;52.654;10.326;2022-09-09T07:49:07;3.67;;;2.13;;
16673;SDS011;8450;52.654;10.326;2022-09-09T07:51:35;2.53;;;2.00;;
16673;SDS011;8450;52.654;10.326;2022-09-09T07:54:04;3.50;;;2.20;;
16673;SDS011;8450;52.654;10.326;2022-09-09T07:56:32;4.03;;;2.43;;
16673;SDS011;8450;52.654;10.326;2022-09-09T07:58:58;2.80;;;2.00;;
16673;SDS011;8450;52.654;10.326;2022-09-09T08:01:29;4.50;;;2.20;;
16673;SDS011;8450;52.654;10.326;2022-09-09T08:03:58;2.60;;;2.27;;
16673;SDS011;8450;52.654;10.326;2022-09-09T08:06:28;3.30;;;2.10;;
16673;SDS011;8450;52.654;10.326;2022-09-09T08:08:55;2.40;;;2.00;;
16673;SDS011;8450;52.654;10.326;2022-09-09T08:11:23;2.10;;;1.83;;
16673;SDS011;8450;52.654;10.326;2022-09-09T08:13:50;3.60;;;2.43;;
16673;SDS011;8450;52.654;10.326;2022-09-09T08:16:18;4.87;;;2.20;;
16673;SDS011;8450;52.654;10.326;2022-09-09T08:18:49;3.93;;;2.00;;
16673;SDS011;8450;52.654;10.326;2022-09-09T08:21:18;2.00;;;1.67;;
16673;SDS011;8450;52.654;10.326;2022-09-09T08:23:47;3.27;;;2.27;;
16673;SDS011;8450;52.654;10.326;2022-09-09T08:26:16;2.93;;;2.00;;
16673;SDS011;8450;52.654;10.326;2022-09-09T08:28:48;2.47;;;2.20;;
16673;SDS011;8450;52.654;10.326;2022-09-09T08:31:21;3.37;;;1.83;;
16673;SDS011;8450;52.654;10.326;2022-09-09T08:34:06;3.00;;;1.97;;
16673;SDS011;8450;52.654;10.326;2022-09-09T08:36:34;4.33;;;2.27;;
16673;SDS011;8450;52.654;10.326;2022-09-09T08:39:06;2.90;;;1.80;;
16673;SDS011;8450;52.654;10.326;2022-09-09T08:41:39;3.43;;;1.90;;
16673;SDS011;8450;52.654;10.326;2022-09-09T08:49:55;2.03;;;1.80;;
16673;SDS011;8450;52.654;10.326;2022-09-09T08:52:29;2.60;;;2.00;;
16673;SDS011;8450;52.654;10.326;2022-09-09T08:54:56;4.33;;;2.50;;
16673;SDS011;8450;52.654;10.326;2022-09-09T08:57:29;3.07;;;2.33;;
16673;SDS011;8450;52.654;10.326;2022-09-09T08:59:57;4.00;;;2.20;;
16673;SDS011;8450;52.654;10.326;2022-09-09T09:02:26;2.67;;;2.20;;
16673;SDS011;8450;52.654;10.326;2022-09-09T09:05:15;3.77;;;2.00;;
16673;SDS011;8450;52.654;10.326;2022-09-09T09:10:50;2.63;;;2.10;;
16673;SDS011;8450;52.654;10.326;2022-09-09T09:16:01;3.53;;;2.30;;
16673;SDS011;8450;52.654;10.326;2022-09-09T09:18:47;2.97;;;2.10;;
16673;SDS011;8450;52.654;10.326;2022-09-09T09:23:58;3.10;;;2.10;;
16673;SDS011;8450;52.654;10.326;2022-09-09T09:26:31;2.63;;;1.80;;
16673;SDS011;8450;52.654;10.326;2022-09-09T09:29:01;3.67;;;2.17;;
16673;SDS011;8450;52.654;10.326;2022-09-09T09:31:37;3.77;;;2.17;;
16673;SDS011;8450;52.654;10.326;2022-09-09T09:34:03;3.33;;;2.37;;
16673;SDS011;8450;52.654;10.326;2022-09-09T09:39:26;4.23;;;2.33;;
16673;SDS011;8450;52.654;10.326;2022-09-09T09:42:07;4.03;;;2.23;;
16673;SDS011;8450;52.654;10.326;2022-09-09T09:44:43;3.40;;;2.27;;
16673;SDS011;8450;52.654;10.326;2022-09-09T09:47:20;2.87;;;2.30;;
16673;SDS011;8450;52.654;10.326;2022-09-09T09:50:16;3.53;;;2.23;;
16673;SDS011;8450;52.654;10.326;2022-09-09T09:52:51;2.30;;;2.10;;
16673;SDS011;8450;52.654;10.326;2022-09-09T09:55:23;2.20;;;1.90;;
16673;SDS011;8450;52.654;10.326;2022-09-09T09:57:50;2.70;;;2.27;;
16673;SDS011;8450;52.654;10.326;2022-09-09T10:00:18;3.30;;;2.43;;
16673;SDS011;8450;52.654;10.326;2022-09-09T10:02:53;2.30;;;2.10;;
16673;SDS011;8450;52.654;10.326;2022-09-09T10:05:27;2.43;;;2.20;;
16673;SDS011;8450;52.654;10.326;2022-09-09T10:08:21;3.60;;;2.20;;
16673;SDS011;8450;52.654;10.326;2022-09-09T10:16:40;5.10;;;2.50;;
16673;SDS011;8450;52.654;10.326;2022-09-09T10:19:36;3.07;;;2.70;;
16673;SDS011;8450;52.654;10.326;2022-09-09T10:27:15;4.17;;;2.80;;
16673;SDS011;8450;52.654;10.326;2022-09-09T10:30:11;3.60;;;2.70;;
16673;SDS011;8450;52.654;10.326;2022-09-09T10:33:10;3.13;;;2.83;;
16673;SDS011;8450;52.654;10.326;2022-09-09T10:38:39;3.73;;;2.90;;
16673;SDS011;8450;52.654;10.326;2022-09-09T10:55:24;6.30;;;4.30;;
16673;SDS011;8450;52.654;10.326;2022-09-09T10:57:57;6.13;;;4.10;;
16673;SDS011;8450;52.654;10.326;2022-09-09T11:00:26;7.27;;;4.33;;
16673;SDS011;8450;52.654;10.326;2022-09-09T11:03:01;5.23;;;3.87;;
16673;SDS011;8450;52.654;10.326;2022-09-09T11:05:41;6.90;;;3.10;;
16673;SDS011;8450;52.654;10.326;2022-09-09T11:08:17;3.57;;;2.40;;
16673;SDS011;8450;52.654;10.326;2022-09-09T11:16:22;5.57;;;2.50;;
16673;SDS011;8450;52.654;10.326;2022-09-09T11:19:14;5.07;;;2.80;;
16673;SDS011;8450;52.654;10.326;2022-09-09T11:21:49;5.07;;;2.63;;
16673;SDS011;8450;52.654;10.326;2022-09-09T11:26:53;5.07;;;3.03;;
16673;SDS011;8450;52.654;10.326;2022-09-09T11:41:14;3.67;;;3.10;;
16673;SDS011;8450;52.654;10.326;2022-09-09T11:43:41;3.17;;;2.60;;
16673;SDS011;8450;52.654;10.326;2022-09-09T11:46:22;4.10;;;3.03;;
16673;SDS011;8450;52.654;10.326;2022-09-09T11:49:03;4.97;;;2.80;;
16673;SDS011;8450;52.654;10.326;2022-09-09T11:51:31;3.40;;;2.77;;
16673;SDS011;8450;52.654;10.326;2022-09-09T11:53:59;3.27;;;2.60;;
16673;SDS011;8450;52.654;10.326;2022-09-09T11:56:45;3.40;;;2.60;;
16673;SDS011;8450;52.654;10.326;2022-09-09T11:59:22;3.57;;;2.60;;
16673;SDS011;8450;52.654;10.326;2022-09-09T12:01:59;15.63;;;6.97;;
16673;SDS011;8450;52.654;10.326;2022-09-09T12:04:32;10.07;;;5.60;;
16673;SDS011;8450;52.654;10.326;2022-09-09T12:12:33;4.17;;;3.10;;
16673;SDS011;8450;52.654;10.326;2022-09-09T12:17:37;5.97;;;3.20;;
16673;SDS011;8450;52.654;10.326;2022-09-09T12:23:14;3.20;;;2.90;;
16673;SDS011;8450;52.654;10.326;2022-09-09T12:26:05;2.77;;;2.50;;
16673;SDS011;8450;52.654;10.326;2022-09-09T12:28:54;2.77;;;2.37;;
16673;SDS011;8450;52.654;10.326;2022-09-09T12:40:02;3.40;;;2.97;;
16673;SDS011;8450;52.654;10.326;2022-09-09T12:42:30;3.10;;;2.80;;
16673;SDS011;8450;52.654;10.326;2022-09-09T12:45:01;4.00;;;3.00;;
16673;SDS011;8450;52.654;10.326;2022-09-09T12:47:39;3.37;;;2.60;;
16673;SDS011;8450;52.654;10.326;2022-09-09T12:50:33;5.80;;;3.13;;
16673;SDS011;8450;52.654;10.326;2022-09-09T12:53:04;3.73;;;3.40;;
16673;SDS011;8450;52.654;10.326;2022-09-09T12:55:35;5.73;;;3.23;;
16673;SDS011;8450;52.654;10.326;2022-09-09T12:58:03;3.27;;;2.77;;
16673;SDS011;8450;52.654;10.326;2022-09-09T13:02:56;2.50;;;2.30;;
16673;SDS011;8450;52.654;10.326;2022-09-09T13:05:27;3.13;;;2.63;;
16673;SDS011;8450;52.654;10.326;2022-09-09T13:08:03;3.70;;;2.30;;
16673;SDS011;8450;52.654;10.326;2022-09-09T13:10:56;4.57;;;2.20;;
16673;SDS011;8450;52.654;10.326;2022-09-09T13:13:50;4.30;;;2.40;;
16673;SDS011;8450;52.654;10.326;2022-09-09T13:16:32;3.27;;;1.90;;
16673;SDS011;8450;52.654;10.326;2022-09-09T13:19:09;1.80;;;1.70;;
16673;SDS011;8450;52.654;10.326;2022-09-09T13:21:40;2.40;;;1.80;;
16673;SDS011;8450;52.654;10.326;2022-09-09T13:27:02;3.93;;;1.87;;
16673;SDS011;8450;52.654;10.326;2022-09-09T13:29:31;3.10;;;1.73;;
16673;SDS011;8450;52.654;10.326;2022-09-09T13:32:04;2.80;;;1.70;;
16673;SDS011;8450;52.654;10.326;2022-09-09T13:34:32;3.00;;;1.60;;
16673;SDS011;8450;52.654;10.326;2022-09-09T13:37:01;2.17;;;1.40;;
16673;SDS011;8450;52.654;10.326;2022-09-09T13:39:31;2.77;;;1.70;;
16673;SDS011;8450;52.654;10.326;2022-09-09T13:41:59;2.70;;;1.47;;
16673;SDS011;8450;52.654;10.326;2022-09-09T13:44:31;1.87;;;1.67;;
16673;SDS011;8450;52.654;10.326;2022-09-09T13:47:16;2.80;;;1.63;;
16673;SDS011;8450;52.654;10.326;2022-09-09T13:49:48;2.40;;;1.60;;
16673;SDS011;8450;52.654;10.326;2022-09-09T13:52:15;2.70;;;1.60;;
16673;SDS011;8450;52.654;10.326;2022-09-09T13:54:43;2.43;;;1.60;;
16673;SDS011;8450;52.654;10.326;2022-09-09T13:57:17;3.13;;;1.67;;
16673;SDS011;8450;52.654;10.326;2022-09-09T13:59:50;2.40;;;1.60;;
16673;SDS011;8450;52.654;10.326;2022-09-09T14:02:20;4.17;;;1.97;;
16673;SDS011;8450;52.654;10.326;2022-09-09T14:04:48;3.37;;;1.77;;
16673;SDS011;8450;52.654;10.326;2022-09-09T14:07:16;2.10;;;1.60;;
16673;SDS011;8450;52.654;10.326;2022-09-09T14:09:43;3.83;;;1.80;;
16673;SDS011;8450;52.654;10.326;2022-09-09T14:12:10;2.27;;;1.80;;
16673;SDS011;8450;52.654;10.326;2022-09-09T14:14:37;2.67;;;1.90;;
16673;SDS011;8450;52.654;10.326;2022-09-09T14:17:03;4.07;;;2.20;;
16673;SDS011;8450;52.654;10.326;2022-09-09T14:19:29;2.47;;;1.83;;
16673;SDS011;8450;52.654;10.326;2022-09-09T14:21:56;4.77;;;2.30;;
16673;SDS011;8450;52.654;10.326;2022-09-09T14:24:22;3.37;;;2.27;;
16673;SDS011;8450;52.654;10.326;2022-09-09T14:26:48;3.87;;;2.67;;
16673;SDS011;8450;52.654;10.326;2022-09-09T14:29:14;4.00;;;2.47;;
16673;SDS011;8450;52.654;10.326;2022-09-09T14:31:39;3.33;;;2.50;;
16673;SDS011;8450;52.654;10.326;2022-09-09T14:34:05;2.90;;;2.40;;
16673;SDS011;8450;52.654;10.326;2022-09-09T14:36:31;5.37;;;2.37;;
16673;SDS011;8450;52.654;10.326;2022-09-09T14:38:56;3.13;;;2.43;;
16673;SDS011;8450;52.654;10.326;2022-09-09T14:41:22;2.97;;;1.90;;
16673;SDS011;8450;52.654;10.326;2022-09-09T14:43:48;4.87;;;2.40;;
16673;SDS011;8450;52.654;10.326;2022-09-09T14:46:15;3.53;;;2.37;;
16673;SDS011;8450;52.654;10.326;2022-09-09T14:48:43;2.87;;;2.20;;
16673;SDS011;8450;52.654;10.326;2022-09-09T14:51:14;3.50;;;2.57;;
16673;SDS011;8450;52.654;10.326;2022-09-09T14:53:42;3.43;;;2.33;;
16673;SDS011;8450;52.654;10.326;2022-09-09T14:56:13;4.10;;;2.00;;
16673;SDS011;8450;52.654;10.326;2022-09-09T14:58:40;3.67;;;2.20;;
16673;SDS011;8450;52.654;10.326;2022-09-09T15:01:10;2.57;;;1.90;;
16673;SDS011;8450;52.654;10.326;2022-09-09T15:03:38;2.47;;;1.83;;
16673;SDS011;8450;52.654;10.326;2022-09-09T15:06:09;3.67;;;2.10;;
16673;SDS011;8450;52.654;10.326;2022-09-09T15:08:36;2.73;;;2.10;;
16673;SDS011;8450;52.654;10.326;2022-09-09T15:11:04;3.40;;;2.00;;
16673;SDS011;8450;52.654;10.326;2022-09-09T15:13:31;3.20;;;2.10;;
16673;SDS011;8450;52.654;10.326;2022-09-09T15:16:03;3.70;;;2.00;;
16673;SDS011;8450;52.654;10.326;2022-09-09T15:18:30;4.00;;;2.40;;
16673;SDS011;8450;52.654;10.326;2022-09-09T15:20:55;2.53;;;2.00;;
16673;SDS011;8450;52.654;10.326;2022-09-09T15:23:21;3.70;;;1.90;;
16673;SDS011;8450;52.654;10.326;2022-09-09T15:25:50;3.90;;;2.20;;
16673;SDS011;8450;52.654;10.326;2022-09-09T15:28:17;2.57;;;1.90;;
16673;SDS011;8450;52.654;10.326;2022-09-09T15:30:46;3.00;;;2.10;;
16673;SDS011;8450;52.654;10.326;2022-09-09T15:33:13;2.83;;;1.87;;
16673;SDS011;8450;52.654;10.326;2022-09-09T15:35:39;5.37;;;3.57;;
16673;SDS011;8450;52.654;10.326;2022-09-09T15:38:04;6.70;;;3.47;;
16673;SDS011;8450;52.654;10.326;2022-09-09T15:40:30;4.10;;;2.90;;
16673;SDS011;8450;52.654;10.326;2022-09-09T15:42:57;3.47;;;2.30;;
16673;SDS011;8450;52.654;10.326;2022-09-09T15:45:24;2.70;;;2.17;;
16673;SDS011;8450;52.654;10.326;2022-09-09T15:47:51;2.30;;;1.90;;
16673;SDS011;8450;52.654;10.326;2022-09-09T15:50:17;2.43;;;1.83;;
16673;SDS011;8450;52.654;10.326;2022-09-09T15:52:43;3.43;;;2.20;;
16673;SDS011;8450;52.654;10.326;2022-09-09T15:55:09;3.80;;;2.20;;
16673;SDS011;8450;52.654;10.326;2022-09-09T15:57:35;3.33;;;1.73;;
16673;SDS011;8450;52.654;10.326;2022-09-09T16:00:01;2.80;;;1.60;;
16673;SDS011;8450;52.654;10.326;2022-09-09T16:02:31;3.10;;;1.90;;
16673;SDS011;8450;52.654;10.326;2022-09-09T16:04:58;2.97;;;1.73;;
16673;SDS011;8450;52.654;10.326;2022-09-09T16:07:23;3.87;;;2.13;;
16673;SDS011;8450;52.654;10.326;2022-09-09T16:09:49;2.27;;;1.87;;
16673;SDS011;8450;52.654;10.326;2022-09-09T16:12:18;2.77;;;1.97;;
16673;SDS011;8450;52.654;10.326;2022-09-09T16:14:44;4.33;;;1.97;;
16673;SDS011;8450;52.654;10.326;2022-09-09T16:17:10;2.00;;;1.80;;
16673;SDS011;8450;52.654;10.326;2022-09-09T16:19:36;3.97;;;2.33;;
16673;SDS011;8450;52.654;10.326;2022-09-09T16:22:04;3.33;;;2.17;;
16673;SDS011;8450;52.654;10.326;2022-09-09T16:24:31;5.57;;;2.70;;
16673;SDS011;8450;52.654;10.326;2022-09-09T16:26:58;2.93;;;2.50;;
16673;SDS011;8450;52.654;10.326;2022-09-09T16:29:23;3.73;;;2.50;;
16673;SDS011;8450;52.654;10.326;2022-09-09T16:31:52;2.97;;;2.27;;
16673;SDS011;8450;52.654;10.326;2022-09-09T16:34:19;3.60;;;2.47;;
16673;SDS011;8450;52.654;10.326;2022-09-09T16:36:46;4.20;;;2.40;;
16673;SDS011;8450;52.654;10.326;2022-09-09T16:39:14;3.40;;;2.00;;
16673;SDS011;8450;52.654;10.326;2022-09-09T16:41:42;2.63;;;2.23;;
16673;SDS011;8450;52.654;10.326;2022-09-09T16:44:10;2.20;;;2.00;;
16673;SDS011;8450;52.654;10.326;2022-09-09T16:46:38;2.53;;;2.07;;
16673;SDS011;8450;52.654;10.326;2022-09-09T16:49:07;4.67;;;2.70;;
